KDMN/DMN METAR and TAF weather

Enter ICAO airport designator
Station Type Date Time Source
KDMN METAR 2019/06/18 15:53 UTC NOAA

KDMN 181553Z AUTO 25011KT 10SM CLR 27/00 A3009 RMK AO2 SLP110 T02720000


Station Type Date Time Source
KDMN Decoded METAR 2019/06/18 15:53 UTC NOAA

DEMING MUNICIPAL AIRPORT, NM, United States (KDMN) 32-16N 107-43W 1311M
Jun 18, 2019 - 11:53 AM EDT / 2019.06.18 1553 UTC
Wind: from the WSW (250 degrees) at 13 MPH (11 KT):0
Visibility: 10 mile(s):0
Sky conditions: clear
Temperature: 81.0 F (27.2 C)
Dew Point: 32.0 F (0.0 C)
Relative Humidity: 16%
Pressure (altimeter): 30.09 in. Hg (1018 hPa)
ob: KDMN 181553Z AUTO 25011KT 10SM CLR 27/00 A3009 RMK AO2 SLP110 T02720000
cycle: 16

Station Type Date Time Source
KDMN TAF 2019/06/18 12:22 UTC NOAA

TAF KDMN 181120Z 1812/1912 24006KT P6SM FEW250
FM182000 25014G22KT P6SM SKC
FM190400 26009KT P6SM FEW250

Example: see airport list